createdAt,value
2022-12-01T00:03:31.888Z,2.14
2022-12-01T00:07:31.457Z,2.12
2022-12-01T00:11:31.063Z,2.12
2022-12-01T00:15:35.581Z,2.13
2022-12-01T00:19:34.800Z,2.13
2022-12-01T00:23:34.473Z,2.14
2022-12-01T00:27:34.034Z,2.10
2022-12-01T00:31:34.892Z,2.12
2022-12-01T00:35:34.025Z,2.11
2022-12-01T00:39:33.721Z,2.10
2022-12-01T00:43:33.026Z,2.05
2022-12-01T00:47:32.573Z,2.07
2022-12-01T00:51:31.549Z,2.06
2022-12-01T00:55:31.217Z,2.05
2022-12-01T00:59:30.306Z,2.06
2022-12-01T01:03:30.665Z,2.07
2022-12-01T01:07:31.214Z,2.07
2022-12-01T01:11:30.673Z,2.09
2022-12-01T01:15:29.613Z,2.09
2022-12-01T01:19:29.267Z,2.09
2022-12-01T01:23:31.492Z,2.07
2022-12-01T01:27:32.029Z,2.08
2022-12-01T01:31:33.295Z,2.10
2022-12-01T01:35:09.577Z,2.10
2022-12-01T01:39:08.955Z,2.09
2022-12-01T01:43:38.382Z,2.10
2022-12-01T01:47:40.868Z,2.10
2022-12-01T01:51:43.880Z,2.12
2022-12-01T01:55:44.127Z,2.07
2022-12-01T01:59:54.409Z,2.08
2022-12-01T02:03:54.854Z,2.07
2022-12-01T02:07:57.274Z,2.07
2022-12-01T02:12:41.273Z,2.08
2022-12-01T02:17:02.278Z,2.09
2022-12-01T02:21:19.549Z,2.07
2022-12-01T02:25:40.607Z,2.06
2022-12-01T02:30:15.508Z,2.06
2022-12-01T02:34:21.872Z,2.06
2022-12-01T02:38:54.946Z,2.06
2022-12-01T02:43:32.062Z,2.06
2022-12-01T02:47:33.406Z,2.06
2022-12-01T02:51:36.746Z,2.06
2022-12-01T02:55:36.455Z,2.06
2022-12-01T02:59:35.561Z,2.08
2022-12-01T03:04:05.633Z,2.07
2022-12-01T03:09:00.841Z,2.06
2022-12-01T03:13:22.193Z,2.07
2022-12-01T03:17:31.011Z,2.05
2022-12-01T03:21:42.343Z,2.06
2022-12-01T03:25:45.680Z,2.05
2022-12-01T03:29:49.200Z,2.03
2022-12-01T03:33:55.091Z,2.04
2022-12-01T03:38:00.279Z,2.06
2022-12-01T03:42:21.017Z,2.03
2022-12-01T03:46:50.626Z,1.99
2022-12-01T03:50:57.064Z,1.97
2022-12-01T03:55:09.315Z,1.98
2022-12-01T03:59:10.221Z,1.99
2022-12-01T04:03:18.278Z,1.99
2022-12-01T04:07:17.412Z,2.00
2022-12-01T04:11:34.866Z,2.01
2022-12-01T04:15:34.273Z,2.01
2022-12-01T04:19:33.607Z,1.98
2022-12-01T04:23:51.907Z,1.97
2022-12-01T04:27:50.930Z,1.95
2022-12-01T04:31:49.988Z,1.96
2022-12-01T04:35:59.542Z,1.99
2022-12-01T04:39:27.246Z,2.00
2022-12-01T04:43:26.134Z,2.02
2022-12-01T04:47:25.304Z,2.01
2022-12-01T04:51:24.545Z,1.99
2022-12-01T04:55:25.814Z,1.96
2022-12-01T04:59:25.389Z,1.96
2022-12-01T05:03:24.686Z,1.95
2022-12-01T05:07:26.136Z,1.95
2022-12-01T05:11:02.273Z,1.95
2022-12-01T05:15:01.453Z,1.94
2022-12-01T05:19:22.706Z,1.95
2022-12-01T05:23:21.972Z,1.94
2022-12-01T05:27:21.108Z,1.93
2022-12-01T05:31:20.851Z,1.93
2022-12-01T05:35:20.413Z,1.94
2022-12-01T05:39:19.726Z,1.93
2022-12-01T05:43:25.271Z,1.89
2022-12-01T05:47:27.573Z,1.86
2022-12-01T05:51:26.494Z,1.84
2022-12-01T05:55:25.701Z,1.83
2022-12-01T05:59:24.733Z,1.82
2022-12-01T06:03:23.794Z,1.80
2022-12-01T06:07:25.432Z,1.77
2022-12-01T06:11:24.438Z,1.74
2022-12-01T06:15:26.869Z,1.73
2022-12-01T06:19:02.028Z,1.72
2022-12-01T06:23:01.628Z,1.74
2022-12-01T06:27:00.859Z,1.73
2022-12-01T06:31:14.077Z,1.70
2022-12-01T06:35:13.136Z,1.69
2022-12-01T06:39:12.438Z,1.68
2022-12-01T06:43:12.495Z,1.64
2022-12-01T06:47:11.799Z,1.62
2022-12-01T06:51:11.234Z,1.60
2022-12-01T06:55:10.673Z,1.60
2022-12-01T06:59:10.495Z,1.60
2022-12-01T07:03:09.857Z,1.59
2022-12-01T07:07:08.904Z,1.58
2022-12-01T07:11:12.628Z,1.59
2022-12-01T07:15:11.934Z,1.62
2022-12-01T07:19:11.331Z,1.63
2022-12-01T07:23:10.468Z,1.63
2022-12-01T07:27:09.231Z,1.66
2022-12-01T07:31:09.967Z,1.66
2022-12-01T07:35:10.691Z,1.64
2022-12-01T07:39:10.286Z,1.62
2022-12-01T07:43:09.570Z,1.63
2022-12-01T07:47:08.668Z,1.64
2022-12-01T07:51:09.798Z,1.64
2022-12-01T07:55:09.003Z,1.63
2022-12-01T07:59:09.750Z,1.66
2022-12-01T08:03:09.201Z,1.67
2022-12-01T08:07:08.849Z,1.69
2022-12-01T08:11:13.831Z,1.71
2022-12-01T08:15:13.198Z,1.74
2022-12-01T08:19:12.031Z,1.77
2022-12-01T08:23:25.039Z,1.79
2022-12-01T08:27:38.294Z,1.83
2022-12-01T08:31:38.365Z,1.89
2022-12-01T08:35:52.245Z,1.94
2022-12-01T08:39:51.958Z,1.98
2022-12-01T08:43:59.637Z,1.98
2022-12-01T08:48:00.131Z,2.01
2022-12-01T08:51:59.271Z,2.01
2022-12-01T08:56:07.776Z,2.03
2022-12-01T09:00:21.164Z,2.04
2022-12-01T09:04:23.154Z,2.06
2022-12-01T09:08:41.536Z,2.10
2022-12-01T09:12:41.270Z,2.13
2022-12-01T09:16:42.909Z,2.15
2022-12-01T09:20:41.893Z,2.16
2022-12-01T09:24:40.901Z,2.19
2022-12-01T09:28:39.743Z,2.23
2022-12-01T09:32:38.908Z,2.24
2022-12-01T09:36:39.026Z,2.24
2022-12-01T09:40:41.465Z,2.29
2022-12-01T09:44:48.807Z,2.32
2022-12-01T09:48:50.571Z,2.34
2022-12-01T09:52:53.729Z,2.37
2022-12-01T09:56:55.586Z,2.39
2022-12-01T10:00:55.523Z,2.39
2022-12-01T10:04:59.454Z,2.39
2022-12-01T10:09:12.757Z,2.39
2022-12-01T10:13:26.494Z,2.38
2022-12-01T10:18:13.372Z,2.37
2022-12-01T10:22:39.848Z,2.40
2022-12-01T10:26:54.390Z,2.41
2022-12-01T10:31:03.144Z,2.38
2022-12-01T10:35:02.888Z,2.38
2022-12-01T10:39:39.226Z,2.36
2022-12-01T10:43:44.704Z,2.36
2022-12-01T10:48:10.845Z,2.36
2022-12-01T10:52:42.279Z,2.39
2022-12-01T10:56:47.911Z,2.40
2022-12-01T11:01:00.403Z,2.43
2022-12-01T11:05:04.831Z,2.46
2022-12-01T11:09:27.103Z,2.48
2022-12-01T11:13:33.909Z,2.49
2022-12-01T11:17:42.585Z,2.48
2022-12-01T11:21:51.085Z,2.48
2022-12-01T11:26:17.889Z,2.46
2022-12-01T11:30:30.647Z,2.43
2022-12-01T11:34:55.041Z,2.41
2022-12-01T11:42:29.713Z,2.41
2022-12-01T11:46:35.709Z,2.40
2022-12-01T11:50:25.791Z,2.43
2022-12-01T11:54:27.052Z,2.42
2022-12-01T11:58:26.543Z,2.46
2022-12-01T12:02:51.516Z,2.47
2022-12-01T12:06:59.520Z,2.47
2022-12-01T12:11:07.634Z,2.46
2022-12-01T12:15:35.500Z,2.47
2022-12-01T12:20:08.043Z,2.45
2022-12-01T12:24:38.510Z,2.43
2022-12-01T12:28:10.979Z,2.43
2022-12-01T12:32:37.937Z,2.40
2022-12-01T12:37:18.731Z,2.37
2022-12-01T12:40:23.696Z,2.34
2022-12-01T12:44:54.176Z,2.33
2022-12-01T12:48:24.429Z,2.31
2022-12-01T12:51:51.366Z,2.31
2022-12-01T12:56:00.145Z,2.32
2022-12-01T13:00:05.587Z,2.29
2022-12-01T13:04:36.226Z,2.28
2022-12-01T13:08:50.372Z,2.27
2022-12-01T13:13:00.904Z,2.28
2022-12-01T13:16:34.170Z,2.28
2022-12-01T13:20:08.048Z,2.27
2022-12-01T13:23:46.704Z,2.22
2022-12-01T13:27:24.568Z,2.18
2022-12-01T13:31:24.640Z,2.14
2022-12-01T13:35:27.003Z,2.11
2022-12-01T13:39:36.455Z,2.11
2022-12-01T13:43:38.169Z,2.10
2022-12-01T13:47:46.934Z,2.08
2022-12-01T13:52:23.493Z,2.06
2022-12-01T13:56:47.257Z,2.01
2022-12-01T14:00:46.509Z,1.93
2022-12-01T14:05:24.739Z,1.89
2022-12-01T14:09:35.888Z,1.85
2022-12-01T14:13:57.187Z,1.81
2022-12-01T14:18:21.152Z,1.75
2022-12-01T14:22:42.205Z,1.66
2022-12-01T14:26:46.167Z,1.58
2022-12-01T14:30:50.037Z,1.53
2022-12-01T14:34:53.885Z,1.53
2022-12-01T14:38:59.200Z,1.56
2022-12-01T14:43:05.825Z,1.60
2022-12-01T14:47:11.273Z,1.65
2022-12-01T14:51:20.171Z,1.70
2022-12-01T14:55:56.722Z,1.74
2022-12-01T15:00:17.951Z,1.77
2022-12-01T15:04:17.757Z,1.78
2022-12-01T15:12:42.546Z,1.78
2022-12-01T15:16:43.682Z,1.80
2022-12-01T15:20:47.698Z,1.81
2022-12-01T15:24:47.920Z,1.80
2022-12-01T15:28:47.460Z,1.80
2022-12-01T15:32:47.539Z,1.80
2022-12-01T15:36:48.422Z,1.78
2022-12-01T15:45:25.356Z,1.72
2022-12-01T15:49:30.510Z,1.71
2022-12-01T15:53:37.289Z,1.69
2022-12-01T15:57:37.266Z,1.67
2022-12-01T16:01:38.735Z,1.67
2022-12-01T16:05:37.997Z,1.72
2022-12-01T16:09:42.481Z,1.75
2022-12-01T16:14:00.403Z,1.81
2022-12-01T16:18:00.095Z,1.82
2022-12-01T16:22:25.593Z,1.83
2022-12-01T16:26:25.056Z,1.85
2022-12-01T16:30:39.725Z,1.85
2022-12-01T16:34:46.209Z,1.87
2022-12-01T16:38:45.296Z,1.88
2022-12-01T16:42:45.790Z,1.88
2022-12-01T16:46:46.912Z,1.89
2022-12-01T16:50:23.211Z,1.92
2022-12-01T16:54:22.989Z,1.93
2022-12-01T16:58:22.549Z,1.94
2022-12-01T17:02:35.757Z,1.95
2022-12-01T17:06:36.522Z,1.97
2022-12-01T17:10:35.868Z,1.99
2022-12-01T17:14:36.172Z,2.00
2022-12-01T17:18:38.434Z,2.02
2022-12-01T17:22:38.401Z,2.05
2022-12-01T17:26:37.538Z,2.08
2022-12-01T17:30:38.112Z,2.10
2022-12-01T17:34:37.550Z,2.11
2022-12-01T17:38:38.862Z,2.11
2022-12-01T17:42:38.267Z,2.11
2022-12-01T17:46:38.766Z,2.14
2022-12-01T17:50:38.423Z,2.16
2022-12-01T17:54:38.381Z,2.17
2022-12-01T17:58:38.072Z,2.18
2022-12-01T18:02:37.987Z,2.18
2022-12-01T18:06:37.416Z,2.18
2022-12-01T18:10:37.422Z,2.18
2022-12-01T18:14:38.028Z,2.19
2022-12-01T18:18:38.831Z,2.20
2022-12-01T18:22:52.304Z,2.22
2022-12-01T18:26:51.945Z,2.22
2022-12-01T18:30:50.949Z,2.23
2022-12-01T18:34:50.618Z,2.24
2022-12-01T18:38:52.638Z,2.25
2022-12-01T18:42:52.462Z,2.25
2022-12-01T18:46:53.267Z,2.26
2022-12-01T18:50:59.101Z,2.24
2022-12-01T18:54:58.722Z,2.21
2022-12-01T18:59:01.388Z,2.06
2022-12-01T19:03:00.671Z,1.92
2022-12-01T19:07:00.142Z,1.82
2022-12-01T19:11:02.362Z,1.74
2022-12-01T19:15:01.482Z,1.72
2022-12-01T19:19:01.549Z,1.71
2022-12-01T19:23:16.163Z,1.74
2022-12-01T19:27:15.641Z,1.77
2022-12-01T19:31:21.165Z,1.80
2022-12-01T19:35:20.410Z,1.79
2022-12-01T19:39:20.419Z,1.79
2022-12-01T19:47:40.261Z,1.78
2022-12-01T19:51:41.025Z,1.78
2022-12-01T19:55:40.539Z,1.77
2022-12-01T19:59:40.204Z,1.73
2022-12-01T20:03:41.207Z,1.67
2022-12-01T20:07:40.599Z,1.65
2022-12-01T20:11:39.645Z,1.65
2022-12-01T20:15:38.864Z,1.64
2022-12-01T20:19:38.823Z,1.64
2022-12-01T20:23:38.489Z,1.62
2022-12-01T20:27:38.142Z,1.58
2022-12-01T20:31:38.785Z,1.57
2022-12-01T20:35:38.477Z,1.56
2022-12-01T20:39:41.578Z,1.56
2022-12-01T20:43:41.451Z,1.54
2022-12-01T20:47:40.657Z,1.54
2022-12-01T20:51:40.851Z,1.54
2022-12-01T20:55:40.206Z,1.51
2022-12-01T20:59:39.569Z,1.50
2022-12-01T21:03:40.081Z,1.48
2022-12-01T21:07:39.483Z,1.48
2022-12-01T21:12:05.480Z,1.45
2022-12-01T21:16:13.637Z,1.43
2022-12-01T21:20:39.383Z,1.39
2022-12-01T21:24:43.560Z,1.35
2022-12-01T21:28:45.271Z,1.35
2022-12-01T21:32:45.894Z,1.34
2022-12-01T21:36:46.284Z,1.32
2022-12-01T21:40:46.969Z,1.31
2022-12-01T21:44:46.695Z,1.28
2022-12-01T21:48:49.761Z,1.28
2022-12-01T21:52:49.913Z,1.29
2022-12-01T21:56:49.949Z,1.28
2022-12-01T22:01:17.155Z,1.26
2022-12-01T22:06:01.009Z,1.26
2022-12-01T22:09:16.793Z,1.25
2022-12-01T22:13:15.595Z,1.25
2022-12-01T22:17:21.632Z,1.30
2022-12-01T22:21:23.916Z,1.30
2022-12-01T22:25:26.662Z,1.30
2022-12-01T22:29:34.352Z,1.32
2022-12-01T22:33:33.992Z,1.36
2022-12-01T22:37:59.324Z,1.41
2022-12-01T22:42:04.255Z,1.45
2022-12-01T22:46:22.419Z,1.49
2022-12-01T22:49:42.781Z,1.53
2022-12-01T22:53:44.251Z,1.54
2022-12-01T22:57:43.918Z,1.56
2022-12-01T23:01:55.572Z,1.56
2022-12-01T23:06:47.469Z,1.56
2022-12-01T23:10:47.093Z,1.53
2022-12-01T23:14:49.753Z,1.52
2022-12-01T23:18:49.303Z,1.51
2022-12-01T23:22:49.262Z,1.52
2022-12-01T23:26:49.068Z,1.52
2022-12-01T23:30:53.525Z,1.50
2022-12-01T23:34:58.397Z,1.49
2022-12-01T23:39:04.733Z,1.49
2022-12-01T23:43:25.083Z,1.48
2022-12-01T23:47:29.574Z,1.49
2022-12-01T23:51:33.542Z,1.48
2022-12-01T23:55:32.670Z,1.46
2022-12-01T23:59:32.544Z,1.47
